sensor_id;sensor_type;location;lat;lon;timestamp;temperature;humidity
37938;DHT22;23763;48.130;11.602;2023-02-19T00:01:14;11.80;99.90
37938;DHT22;23763;48.130;11.602;2023-02-19T00:03:41;11.90;99.90
37938;DHT22;23763;48.130;11.602;2023-02-19T00:06:09;11.80;99.90
37938;DHT22;23763;48.130;11.602;2023-02-19T00:08:37;11.80;99.90
37938;DHT22;23763;48.130;11.602;2023-02-19T00:11:08;11.80;99.90
37938;DHT22;23763;48.130;11.602;2023-02-19T00:13:40;11.80;99.90
37938;DHT22;23763;48.130;11.602;2023-02-19T00:16:07;11.90;99.90
37938;DHT22;23763;48.130;11.602;2023-02-19T00:18:32;11.80;99.90
37938;DHT22;23763;48.130;11.602;2023-02-19T00:20:59;11.80;99.90
37938;DHT22;23763;48.130;11.602;2023-02-19T00:23:25;11.80;99.90
37938;DHT22;23763;48.130;11.602;2023-02-19T00:25:52;11.80;99.90
37938;DHT22;23763;48.130;11.602;2023-02-19T00:28:18;11.80;99.90
37938;DHT22;23763;48.130;11.602;2023-02-19T00:30:44;11.90;99.90
37938;DHT22;23763;48.130;11.602;2023-02-19T00:33:10;11.70;99.90
37938;DHT22;23763;48.130;11.602;2023-02-19T00:35:36;11.70;99.90
37938;DHT22;23763;48.130;11.602;2023-02-19T00:38:02;11.70;99.90
37938;DHT22;23763;48.130;11.602;2023-02-19T00:40:28;11.70;99.90
37938;DHT22;23763;48.130;11.602;2023-02-19T00:42:53;11.70;99.90
37938;DHT22;23763;48.130;11.602;2023-02-19T00:45:20;11.70;99.90
37938;DHT22;23763;48.130;11.602;2023-02-19T00:47:46;11.90;99.90
37938;DHT22;23763;48.130;11.602;2023-02-19T00:50:12;11.70;99.90
37938;DHT22;23763;48.130;11.602;2023-02-19T00:52:38;11.80;99.90
37938;DHT22;23763;48.130;11.602;2023-02-19T00:55:04;11.80;99.90
37938;DHT22;23763;48.130;11.602;2023-02-19T00:57:30;11.80;99.90
37938;DHT22;23763;48.130;11.602;2023-02-19T00:59:56;11.80;99.90
37938;DHT22;23763;48.130;11.602;2023-02-19T01:02:22;11.70;99.90
37938;DHT22;23763;48.130;11.602;2023-02-19T01:04:47;11.80;99.90
37938;DHT22;23763;48.130;11.602;2023-02-19T01:07:13;11.80;99.90
37938;DHT22;23763;48.130;11.602;2023-02-19T01:09:38;11.80;99.90
37938;DHT22;23763;48.130;11.602;2023-02-19T01:12:05;11.80;99.90
37938;DHT22;23763;48.130;11.602;2023-02-19T01:14:31;11.80;99.90
37938;DHT22;23763;48.130;11.602;2023-02-19T01:16:57;11.80;99.90
37938;DHT22;23763;48.130;11.602;2023-02-19T01:19:22;11.70;99.90
37938;DHT22;23763;48.130;11.602;2023-02-19T01:21:48;11.70;99.90
37938;DHT22;23763;48.130;11.602;2023-02-19T01:24:14;11.70;99.90
37938;DHT22;23763;48.130;11.602;2023-02-19T01:26:41;11.60;99.90
37938;DHT22;23763;48.130;11.602;2023-02-19T01:29:07;11.60;99.90
37938;DHT22;23763;48.130;11.602;2023-02-19T01:31:33;11.60;99.90
37938;DHT22;23763;48.130;11.602;2023-02-19T01:34:00;11.70;99.90
37938;DHT22;23763;48.130;11.602;2023-02-19T01:36:27;11.60;99.90
37938;DHT22;23763;48.130;11.602;2023-02-19T01:38:54;11.80;99.90
37938;DHT22;23763;48.130;11.602;2023-02-19T01:41:22;11.70;99.90
37938;DHT22;23763;48.130;11.602;2023-02-19T01:46:43;11.60;99.90
37938;DHT22;23763;48.130;11.602;2023-02-19T01:51:44;11.60;99.90
37938;DHT22;23763;48.130;11.602;2023-02-19T01:54:12;11.60;99.90
37938;DHT22;23763;48.130;11.602;2023-02-19T01:56:41;11.50;99.90
37938;DHT22;23763;48.130;11.602;2023-02-19T01:59:07;11.50;99.90
37938;DHT22;23763;48.130;11.602;2023-02-19T02:01:35;11.50;99.90
37938;DHT22;23763;48.130;11.602;2023-02-19T02:04:02;11.50;99.90
37938;DHT22;23763;48.130;11.602;2023-02-19T02:06:38;11.40;99.90
37938;DHT22;23763;48.130;11.602;2023-02-19T02:09:06;11.40;99.90
37938;DHT22;23763;48.130;11.602;2023-02-19T02:11:51;11.50;99.90
37938;DHT22;23763;48.130;11.602;2023-02-19T02:14:20;11.40;99.90
37938;DHT22;23763;48.130;11.602;2023-02-19T02:17:06;11.40;99.90
37938;DHT22;23763;48.130;11.602;2023-02-19T02:31:42;10.80;99.90
37938;DHT22;23763;48.130;11.602;2023-02-19T02:33:56;10.80;99.90
37938;DHT22;23763;48.130;11.602;2023-02-19T02:36:35;10.80;99.90
37938;DHT22;23763;48.130;11.602;2023-02-19T02:39:02;10.70;99.90
37938;DHT22;23763;48.130;11.602;2023-02-19T02:41:32;10.60;99.90
37938;DHT22;23763;48.130;11.602;2023-02-19T02:43:58;10.50;99.90
37938;DHT22;23763;48.130;11.602;2023-02-19T02:46:29;10.50;99.90
37938;DHT22;23763;48.130;11.602;2023-02-19T02:49:00;10.40;99.90
37938;DHT22;23763;48.130;11.602;2023-02-19T02:51:31;10.40;99.90
37938;DHT22;23763;48.130;11.602;2023-02-19T02:54:09;10.30;99.90
37938;DHT22;23763;48.130;11.602;2023-02-19T02:56:55;10.40;99.90
37938;DHT22;23763;48.130;11.602;2023-02-19T02:59:25;10.30;99.90
37938;DHT22;23763;48.130;11.602;2023-02-19T03:01:56;10.20;99.90
37938;DHT22;23763;48.130;11.602;2023-02-19T03:07:27;10.00;99.90
37938;DHT22;23763;48.130;11.602;2023-02-19T03:09:55;10.00;99.90
37938;DHT22;23763;48.130;11.602;2023-02-19T03:12:24;10.00;99.90
37938;DHT22;23763;48.130;11.602;2023-02-19T03:15:12;10.00;99.90
37938;DHT22;23763;48.130;11.602;2023-02-19T03:18:01;10.00;99.90
37938;DHT22;23763;48.130;11.602;2023-02-19T03:20:50;9.90;99.90
37938;DHT22;23763;48.130;11.602;2023-02-19T03:23:19;9.80;99.90
37938;DHT22;23763;48.130;11.602;2023-02-19T03:26:07;9.70;99.90
37938;DHT22;23763;48.130;11.602;2023-02-19T03:28:35;9.70;99.90
37938;DHT22;23763;48.130;11.602;2023-02-19T03:31:23;9.60;99.90
37938;DHT22;23763;48.130;11.602;2023-02-19T03:33:54;9.70;99.90
37938;DHT22;23763;48.130;11.602;2023-02-19T03:36:21;9.60;99.90
37938;DHT22;23763;48.130;11.602;2023-02-19T03:38:59;9.60;99.90
37938;DHT22;23763;48.130;11.602;2023-02-19T03:44:08;9.50;99.90
37938;DHT22;23763;48.130;11.602;2023-02-19T03:46:46;9.50;99.90
37938;DHT22;23763;48.130;11.602;2023-02-19T03:52:07;9.40;99.90
37938;DHT22;23763;48.130;11.602;2023-02-19T03:57:38;9.30;99.90
37938;DHT22;23763;48.130;11.602;2023-02-19T04:02:49;9.20;99.90
37938;DHT22;23763;48.130;11.602;2023-02-19T04:05:21;9.20;99.90
37938;DHT22;23763;48.130;11.602;2023-02-19T04:07:50;9.20;99.90
37938;DHT22;23763;48.130;11.602;2023-02-19T04:10:17;9.20;99.90
37938;DHT22;23763;48.130;11.602;2023-02-19T04:12:47;9.20;99.90
37938;DHT22;23763;48.130;11.602;2023-02-19T04:15:17;9.10;99.90
37938;DHT22;23763;48.130;11.602;2023-02-19T04:17:52;9.10;99.90
37938;DHT22;23763;48.130;11.602;2023-02-19T04:20:20;9.10;99.90
37938;DHT22;23763;48.130;11.602;2023-02-19T04:22:47;9.20;99.90
37938;DHT22;23763;48.130;11.602;2023-02-19T04:25:13;9.10;99.90
37938;DHT22;23763;48.130;11.602;2023-02-19T04:27:39;9.10;99.90
37938;DHT22;23763;48.130;11.602;2023-02-19T04:30:06;9.20;99.90
37938;DHT22;23763;48.130;11.602;2023-02-19T04:32:33;9.10;99.90
37938;DHT22;23763;48.130;11.602;2023-02-19T04:34:58;9.00;99.90
37938;DHT22;23763;48.130;11.602;2023-02-19T04:37:24;9.10;99.90
37938;DHT22;23763;48.130;11.602;2023-02-19T04:39:49;9.10;99.90
37938;DHT22;23763;48.130;11.602;2023-02-19T04:42:15;9.10;99.90
37938;DHT22;23763;48.130;11.602;2023-02-19T04:44:40;9.20;99.90
37938;DHT22;23763;48.130;11.602;2023-02-19T04:47:06;9.20;99.90
37938;DHT22;23763;48.130;11.602;2023-02-19T04:49:32;9.20;99.90
37938;DHT22;23763;48.130;11.602;2023-02-19T04:51:57;9.30;99.90
37938;DHT22;23763;48.130;11.602;2023-02-19T04:54:23;9.20;99.90
37938;DHT22;23763;48.130;11.602;2023-02-19T04:56:48;9.20;99.90
37938;DHT22;23763;48.130;11.602;2023-02-19T04:59:15;9.20;99.90
37938;DHT22;23763;48.130;11.602;2023-02-19T05:01:41;9.30;99.90
37938;DHT22;23763;48.130;11.602;2023-02-19T05:04:07;9.30;99.90
37938;DHT22;23763;48.130;11.602;2023-02-19T05:06:32;9.40;99.90
37938;DHT22;23763;48.130;11.602;2023-02-19T05:08:58;9.40;99.90
37938;DHT22;23763;48.130;11.602;2023-02-19T05:11:24;9.30;99.90
37938;DHT22;23763;48.130;11.602;2023-02-19T05:13:49;9.40;99.90
37938;DHT22;23763;48.130;11.602;2023-02-19T05:16:15;9.40;99.90
37938;DHT22;23763;48.130;11.602;2023-02-19T05:18:43;9.40;99.90
37938;DHT22;23763;48.130;11.602;2023-02-19T05:21:09;9.40;99.90
37938;DHT22;23763;48.130;11.602;2023-02-19T05:23:35;9.50;99.90
37938;DHT22;23763;48.130;11.602;2023-02-19T05:26:05;9.40;99.90
37938;DHT22;23763;48.130;11.602;2023-02-19T05:28:31;9.40;99.90
37938;DHT22;23763;48.130;11.602;2023-02-19T05:30:56;9.40;99.90
37938;DHT22;23763;48.130;11.602;2023-02-19T05:33:24;9.50;99.90
37938;DHT22;23763;48.130;11.602;2023-02-19T05:35:52;9.50;99.90
37938;DHT22;23763;48.130;11.602;2023-02-19T05:38:18;9.50;99.90
37938;DHT22;23763;48.130;11.602;2023-02-19T05:40:44;9.50;99.90
37938;DHT22;23763;48.130;11.602;2023-02-19T05:43:11;9.50;99.90
37938;DHT22;23763;48.130;11.602;2023-02-19T05:45:37;9.50;99.90
37938;DHT22;23763;48.130;11.602;2023-02-19T05:48:04;9.50;99.90
37938;DHT22;23763;48.130;11.602;2023-02-19T05:50:34;9.50;99.90
37938;DHT22;23763;48.130;11.602;2023-02-19T05:53:02;9.60;99.90
37938;DHT22;23763;48.130;11.602;2023-02-19T05:55:28;9.50;99.90
37938;DHT22;23763;48.130;11.602;2023-02-19T05:57:54;9.60;99.90
37938;DHT22;23763;48.130;11.602;2023-02-19T06:00:20;9.60;99.90
37938;DHT22;23763;48.130;11.602;2023-02-19T06:02:46;9.60;99.90
37938;DHT22;23763;48.130;11.602;2023-02-19T06:05:12;9.60;99.90
37938;DHT22;23763;48.130;11.602;2023-02-19T06:07:38;9.60;99.90
37938;DHT22;23763;48.130;11.602;2023-02-19T06:10:08;9.60;99.90
37938;DHT22;23763;48.130;11.602;2023-02-19T06:12:35;9.70;99.90
37938;DHT22;23763;48.130;11.602;2023-02-19T06:15:00;9.60;99.90
37938;DHT22;23763;48.130;11.602;2023-02-19T06:17:26;9.70;99.90
37938;DHT22;23763;48.130;11.602;2023-02-19T06:19:51;9.70;99.90
37938;DHT22;23763;48.130;11.602;2023-02-19T06:22:17;9.70;99.90
37938;DHT22;23763;48.130;11.602;2023-02-19T06:24:43;9.80;99.90
37938;DHT22;23763;48.130;11.602;2023-02-19T06:27:09;9.70;99.90
37938;DHT22;23763;48.130;11.602;2023-02-19T06:29:34;9.70;99.90
37938;DHT22;23763;48.130;11.602;2023-02-19T06:32:03;9.80;99.90
37938;DHT22;23763;48.130;11.602;2023-02-19T06:34:29;9.80;99.90
37938;DHT22;23763;48.130;11.602;2023-02-19T06:36:55;9.80;99.90
37938;DHT22;23763;48.130;11.602;2023-02-19T06:39:21;9.80;99.90
37938;DHT22;23763;48.130;11.602;2023-02-19T06:41:46;9.80;99.90
37938;DHT22;23763;48.130;11.602;2023-02-19T06:44:12;9.90;99.90
37938;DHT22;23763;48.130;11.602;2023-02-19T06:46:38;9.80;99.90
37938;DHT22;23763;48.130;11.602;2023-02-19T06:49:04;9.80;99.90
37938;DHT22;23763;48.130;11.602;2023-02-19T06:51:30;9.90;99.90
37938;DHT22;23763;48.130;11.602;2023-02-19T06:53:57;10.00;99.90
37938;DHT22;23763;48.130;11.602;2023-02-19T06:56:37;9.90;99.90
37938;DHT22;23763;48.130;11.602;2023-02-19T06:59:07;10.00;99.90
37938;DHT22;23763;48.130;11.602;2023-02-19T07:01:35;10.10;99.90
37938;DHT22;23763;48.130;11.602;2023-02-19T07:04:01;10.20;99.90
37938;DHT22;23763;48.130;11.602;2023-02-19T07:06:27;10.10;99.90
37938;DHT22;23763;48.130;11.602;2023-02-19T07:08:55;10.20;99.90
37938;DHT22;23763;48.130;11.602;2023-02-19T07:11:20;10.20;99.90
37938;DHT22;23763;48.130;11.602;2023-02-19T07:13:46;10.30;99.90
37938;DHT22;23763;48.130;11.602;2023-02-19T07:16:12;10.30;99.90
37938;DHT22;23763;48.130;11.602;2023-02-19T07:18:38;10.30;99.90
37938;DHT22;23763;48.130;11.602;2023-02-19T07:21:06;10.30;99.90
37938;DHT22;23763;48.130;11.602;2023-02-19T07:23:33;10.30;99.90
37938;DHT22;23763;48.130;11.602;2023-02-19T07:25:59;10.30;99.90
37938;DHT22;23763;48.130;11.602;2023-02-19T07:28:25;10.40;99.90
37938;DHT22;23763;48.130;11.602;2023-02-19T07:30:51;10.40;99.90
37938;DHT22;23763;48.130;11.602;2023-02-19T07:33:17;10.40;99.90
37938;DHT22;23763;48.130;11.602;2023-02-19T07:35:49;10.50;99.90
37938;DHT22;23763;48.130;11.602;2023-02-19T07:38:19;10.50;99.90
37938;DHT22;23763;48.130;11.602;2023-02-19T07:40:55;10.50;99.90
37938;DHT22;23763;48.130;11.602;2023-02-19T07:43:24;10.60;99.90
37938;DHT22;23763;48.130;11.602;2023-02-19T07:45:50;10.70;99.90
37938;DHT22;23763;48.130;11.602;2023-02-19T07:48:17;10.70;99.90
37938;DHT22;23763;48.130;11.602;2023-02-19T07:50:54;10.60;99.90
37938;DHT22;23763;48.130;11.602;2023-02-19T07:53:20;10.60;99.90
37938;DHT22;23763;48.130;11.602;2023-02-19T07:55:46;10.80;99.90
37938;DHT22;23763;48.130;11.602;2023-02-19T07:58:12;10.60;99.90
37938;DHT22;23763;48.130;11.602;2023-02-19T08:00:38;10.50;99.90
37938;DHT22;23763;48.130;11.602;2023-02-19T08:03:04;10.60;99.90
37938;DHT22;23763;48.130;11.602;2023-02-19T08:05:32;10.60;99.90
37938;DHT22;23763;48.130;11.602;2023-02-19T08:07:59;10.60;99.90
37938;DHT22;23763;48.130;11.602;2023-02-19T08:10:25;10.70;99.90
37938;DHT22;23763;48.130;11.602;2023-02-19T08:13:14;10.70;99.90
37938;DHT22;23763;48.130;11.602;2023-02-19T08:18:30;10.50;99.90
37938;DHT22;23763;48.130;11.602;2023-02-19T08:20:58;10.50;99.90
37938;DHT22;23763;48.130;11.602;2023-02-19T08:23:24;10.50;99.90
37938;DHT22;23763;48.130;11.602;2023-02-19T08:25:50;10.40;99.90
37938;DHT22;23763;48.130;11.602;2023-02-19T08:28:17;10.40;99.90
37938;DHT22;23763;48.130;11.602;2023-02-19T08:30:45;10.50;99.90
37938;DHT22;23763;48.130;11.602;2023-02-19T08:33:16;10.50;99.90
37938;DHT22;23763;48.130;11.602;2023-02-19T08:35:42;10.50;99.90
37938;DHT22;23763;48.130;11.602;2023-02-19T08:38:09;10.70;99.90
37938;DHT22;23763;48.130;11.602;2023-02-19T08:40:37;10.70;99.90
37938;DHT22;23763;48.130;11.602;2023-02-19T08:43:04;10.70;99.90
37938;DHT22;23763;48.130;11.602;2023-02-19T08:45:31;10.80;99.90
37938;DHT22;23763;48.130;11.602;2023-02-19T08:47:57;10.70;99.90
37938;DHT22;23763;48.130;11.602;2023-02-19T08:50:23;10.80;99.90
37938;DHT22;23763;48.130;11.602;2023-02-19T08:52:49;10.90;99.90
37938;DHT22;23763;48.130;11.602;2023-02-19T08:55:15;10.80;99.90
37938;DHT22;23763;48.130;11.602;2023-02-19T08:57:41;10.70;99.90
37938;DHT22;23763;48.130;11.602;2023-02-19T09:00:07;10.60;99.90
37938;DHT22;23763;48.130;11.602;2023-02-19T09:02:33;10.50;99.90
37938;DHT22;23763;48.130;11.602;2023-02-19T09:04:59;10.60;99.90
37938;DHT22;23763;48.130;11.602;2023-02-19T09:07:26;10.50;99.90
37938;DHT22;23763;48.130;11.602;2023-02-19T09:09:51;10.40;99.90
37938;DHT22;23763;48.130;11.602;2023-02-19T09:12:17;10.40;99.90
37938;DHT22;23763;48.130;11.602;2023-02-19T09:14:43;10.40;99.90
37938;DHT22;23763;48.130;11.602;2023-02-19T09:17:09;10.40;99.90
37938;DHT22;23763;48.130;11.602;2023-02-19T09:19:36;10.40;99.90
37938;DHT22;23763;48.130;11.602;2023-02-19T09:22:03;10.40;99.90
37938;DHT22;23763;48.130;11.602;2023-02-19T09:24:29;10.30;99.90
37938;DHT22;23763;48.130;11.602;2023-02-19T09:26:55;10.30;99.90
37938;DHT22;23763;48.130;11.602;2023-02-19T09:29:23;10.30;99.90
37938;DHT22;23763;48.130;11.602;2023-02-19T09:31:48;10.40;99.90
37938;DHT22;23763;48.130;11.602;2023-02-19T09:34:14;10.40;99.90
37938;DHT22;23763;48.130;11.602;2023-02-19T09:36:40;10.40;99.90
37938;DHT22;23763;48.130;11.602;2023-02-19T09:39:07;10.30;99.90
37938;DHT22;23763;48.130;11.602;2023-02-19T09:41:36;10.50;99.90
37938;DHT22;23763;48.130;11.602;2023-02-19T09:44:04;10.70;99.90
37938;DHT22;23763;48.130;11.602;2023-02-19T09:46:43;10.80;99.90
37938;DHT22;23763;48.130;11.602;2023-02-19T09:49:14;10.70;99.90
37938;DHT22;23763;48.130;11.602;2023-02-19T09:51:43;10.60;99.90
37938;DHT22;23763;48.130;11.602;2023-02-19T09:54:18;10.60;99.90
37938;DHT22;23763;48.130;11.602;2023-02-19T09:56:45;10.20;99.90
37938;DHT22;23763;48.130;11.602;2023-02-19T09:59:18;10.20;99.90
37938;DHT22;23763;48.130;11.602;2023-02-19T10:01:47;10.30;99.90
37938;DHT22;23763;48.130;11.602;2023-02-19T10:04:13;10.20;99.90
37938;DHT22;23763;48.130;11.602;2023-02-19T10:06:39;10.20;99.90
37938;DHT22;23763;48.130;11.602;2023-02-19T10:09:22;10.20;99.90
37938;DHT22;23763;48.130;11.602;2023-02-19T10:11:48;10.40;99.90
37938;DHT22;23763;48.130;11.602;2023-02-19T10:14:21;10.30;99.90
37938;DHT22;23763;48.130;11.602;2023-02-19T10:16:48;10.30;99.90
37938;DHT22;23763;48.130;11.602;2023-02-19T10:19:14;10.20;99.90
37938;DHT22;23763;48.130;11.602;2023-02-19T10:21:41;10.10;99.90
37938;DHT22;23763;48.130;11.602;2023-02-19T10:24:19;10.20;99.90
37938;DHT22;23763;48.130;11.602;2023-02-19T10:26:46;10.30;99.90
37938;DHT22;23763;48.130;11.602;2023-02-19T10:29:11;10.40;99.90
37938;DHT22;23763;48.130;11.602;2023-02-19T10:31:37;10.50;99.90
37938;DHT22;23763;48.130;11.602;2023-02-19T10:34:03;10.60;99.90
37938;DHT22;23763;48.130;11.602;2023-02-19T10:36:37;10.70;99.90
37938;DHT22;23763;48.130;11.602;2023-02-19T10:39:33;10.80;99.90
37938;DHT22;23763;48.130;11.602;2023-02-19T10:42:01;10.80;99.90
37938;DHT22;23763;48.130;11.602;2023-02-19T10:44:30;10.90;99.90
37938;DHT22;23763;48.130;11.602;2023-02-19T10:46:59;11.00;99.90
37938;DHT22;23763;48.130;11.602;2023-02-19T10:49:27;11.10;99.90
37938;DHT22;23763;48.130;11.602;2023-02-19T10:51:55;11.10;99.90
37938;DHT22;23763;48.130;11.602;2023-02-19T10:54:28;11.20;99.90
37938;DHT22;23763;48.130;11.602;2023-02-19T10:59:52;11.40;99.90
37938;DHT22;23763;48.130;11.602;2023-02-19T11:02:19;11.40;99.90
37938;DHT22;23763;48.130;11.602;2023-02-19T11:07:54;11.40;99.90
37938;DHT22;23763;48.130;11.602;2023-02-19T11:10:25;11.30;99.90
37938;DHT22;23763;48.130;11.602;2023-02-19T11:12:55;11.40;99.90
37938;DHT22;23763;48.130;11.602;2023-02-19T11:15:26;11.70;99.90
37938;DHT22;23763;48.130;11.602;2023-02-19T11:17:55;11.90;99.90
37938;DHT22;23763;48.130;11.602;2023-02-19T11:20:21;11.80;99.90
37938;DHT22;23763;48.130;11.602;2023-02-19T11:22:47;11.80;99.90
37938;DHT22;23763;48.130;11.602;2023-02-19T11:28:05;11.90;99.90
37938;DHT22;23763;48.130;11.602;2023-02-19T11:30:40;11.90;99.90
37938;DHT22;23763;48.130;11.602;2023-02-19T11:35:41;11.90;99.90
37938;DHT22;23763;48.130;11.602;2023-02-19T11:38:09;11.90;99.90
37938;DHT22;23763;48.130;11.602;2023-02-19T11:41:09;11.90;99.90
37938;DHT22;23763;48.130;11.602;2023-02-19T11:52:26;11.70;99.90
37938;DHT22;23763;48.130;11.602;2023-02-19T11:55:12;11.70;99.90
37938;DHT22;23763;48.130;11.602;2023-02-19T12:00:26;11.40;99.90
37938;DHT22;23763;48.130;11.602;2023-02-19T12:05:58;11.10;99.90
37938;DHT22;23763;48.130;11.602;2023-02-19T12:22:02;11.50;99.90
37938;DHT22;23763;48.130;11.602;2023-02-19T12:27:15;11.80;99.90
37938;DHT22;23763;48.130;11.602;2023-02-19T12:35:26;12.20;99.90
37938;DHT22;23763;48.130;11.602;2023-02-19T12:43:21;12.10;99.90
37938;DHT22;23763;48.130;11.602;2023-02-19T12:46:04;12.10;99.90
37938;DHT22;23763;48.130;11.602;2023-02-19T12:48:35;12.10;99.90
37938;DHT22;23763;48.130;11.602;2023-02-19T12:53:53;11.50;99.90
37938;DHT22;23763;48.130;11.602;2023-02-19T12:56:46;11.20;99.90
37938;DHT22;23763;48.130;11.602;2023-02-19T12:59:34;10.90;99.90
37938;DHT22;23763;48.130;11.602;2023-02-19T13:10:35;10.90;99.90
37938;DHT22;23763;48.130;11.602;2023-02-19T13:13:19;10.90;99.90
37938;DHT22;23763;48.130;11.602;2023-02-19T13:15:54;11.00;99.90
37938;DHT22;23763;48.130;11.602;2023-02-19T13:18:33;11.10;99.90
37938;DHT22;23763;48.130;11.602;2023-02-19T13:21:01;11.00;99.90
37938;DHT22;23763;48.130;11.602;2023-02-19T13:23:32;10.90;99.90
37938;DHT22;23763;48.130;11.602;2023-02-19T13:37:49;11.50;99.90
37938;DHT22;23763;48.130;11.602;2023-02-19T13:43:03;11.50;99.90
37938;DHT22;23763;48.130;11.602;2023-02-19T13:45:42;11.40;99.90
37938;DHT22;23763;48.130;11.602;2023-02-19T14:14:50;10.80;99.90
37938;DHT22;23763;48.130;11.602;2023-02-19T14:17:42;10.70;99.90
37938;DHT22;23763;48.130;11.602;2023-02-19T14:25:50;10.60;99.90
37938;DHT22;23763;48.130;11.602;2023-02-19T14:28:30;10.70;99.90
37938;DHT22;23763;48.130;11.602;2023-02-19T14:31:33;10.60;99.90
37938;DHT22;23763;48.130;11.602;2023-02-19T14:34:02;10.60;99.90
37938;DHT22;23763;48.130;11.602;2023-02-19T14:36:52;10.70;99.90
37938;DHT22;23763;48.130;11.602;2023-02-19T14:39:29;10.60;99.90
37938;DHT22;23763;48.130;11.602;2023-02-19T14:41:58;10.50;99.90
37938;DHT22;23763;48.130;11.602;2023-02-19T14:44:31;10.50;99.90
37938;DHT22;23763;48.130;11.602;2023-02-19T14:47:05;10.50;99.90
37938;DHT22;23763;48.130;11.602;2023-02-19T14:52:06;10.50;99.90
37938;DHT22;23763;48.130;11.602;2023-02-19T14:57:16;10.50;99.90
37938;DHT22;23763;48.130;11.602;2023-02-19T15:00:02;10.50;99.90
37938;DHT22;23763;48.130;11.602;2023-02-19T15:02:30;10.30;99.90
37938;DHT22;23763;48.130;11.602;2023-02-19T15:04:56;10.40;99.90
37938;DHT22;23763;48.130;11.602;2023-02-19T15:07:28;10.40;99.90
37938;DHT22;23763;48.130;11.602;2023-02-19T15:09:57;10.30;99.90
37938;DHT22;23763;48.130;11.602;2023-02-19T15:12:32;10.40;99.90
37938;DHT22;23763;48.130;11.602;2023-02-19T15:15:02;10.40;99.90
37938;DHT22;23763;48.130;11.602;2023-02-19T15:17:30;10.40;99.90
37938;DHT22;23763;48.130;11.602;2023-02-19T15:20:00;10.30;99.90
37938;DHT22;23763;48.130;11.602;2023-02-19T15:22:28;10.30;99.90
37938;DHT22;23763;48.130;11.602;2023-02-19T15:25:00;10.30;99.90
37938;DHT22;23763;48.130;11.602;2023-02-19T15:27:26;10.30;99.90
37938;DHT22;23763;48.130;11.602;2023-02-19T15:29:52;10.40;99.90
37938;DHT22;23763;48.130;11.602;2023-02-19T15:32:23;10.40;99.90
37938;DHT22;23763;48.130;11.602;2023-02-19T15:34:58;10.40;99.90
37938;DHT22;23763;48.130;11.602;2023-02-19T15:37:32;10.30;99.90
37938;DHT22;23763;48.130;11.602;2023-02-19T15:40:04;10.40;99.90
37938;DHT22;23763;48.130;11.602;2023-02-19T15:42:33;10.50;99.90
37938;DHT22;23763;48.130;11.602;2023-02-19T15:45:02;10.50;99.90
37938;DHT22;23763;48.130;11.602;2023-02-19T15:47:54;10.30;99.90
37938;DHT22;23763;48.130;11.602;2023-02-19T15:50:24;10.40;99.90
37938;DHT22;23763;48.130;11.602;2023-02-19T15:53:23;10.10;99.90
37938;DHT22;23763;48.130;11.602;2023-02-19T15:56:07;10.10;99.90
37938;DHT22;23763;48.130;11.602;2023-02-19T16:03:40;9.90;99.90
37938;DHT22;23763;48.130;11.602;2023-02-19T16:06:09;9.90;99.90
37938;DHT22;23763;48.130;11.602;2023-02-19T16:08:37;9.90;99.90
37938;DHT22;23763;48.130;11.602;2023-02-19T16:11:26;9.80;99.90
37938;DHT22;23763;48.130;11.602;2023-02-19T16:14:14;9.80;99.90
37938;DHT22;23763;48.130;11.602;2023-02-19T16:16:39;9.70;99.90
37938;DHT22;23763;48.130;11.602;2023-02-19T16:19:05;9.60;99.90
37938;DHT22;23763;48.130;11.602;2023-02-19T16:21:31;9.60;99.90
37938;DHT22;23763;48.130;11.602;2023-02-19T16:24:23;9.60;99.90
37938;DHT22;23763;48.130;11.602;2023-02-19T16:26:50;9.50;99.90
37938;DHT22;23763;48.130;11.602;2023-02-19T16:29:21;9.50;99.90
37938;DHT22;23763;48.130;11.602;2023-02-19T16:31:53;9.40;99.90
37938;DHT22;23763;48.130;11.602;2023-02-19T16:34:42;9.40;99.90
37938;DHT22;23763;48.130;11.602;2023-02-19T16:42:34;9.40;99.90
37938;DHT22;23763;48.130;11.602;2023-02-19T16:45:00;9.40;99.90
37938;DHT22;23763;48.130;11.602;2023-02-19T16:47:31;9.30;99.90
37938;DHT22;23763;48.130;11.602;2023-02-19T16:50:00;9.30;99.90
37938;DHT22;23763;48.130;11.602;2023-02-19T16:52:27;9.30;99.90
37938;DHT22;23763;48.130;11.602;2023-02-19T16:54:53;9.30;99.90
37938;DHT22;23763;48.130;11.602;2023-02-19T16:57:19;9.30;99.90
37938;DHT22;23763;48.130;11.602;2023-02-19T16:59:45;9.20;99.90
37938;DHT22;23763;48.130;11.602;2023-02-19T17:02:16;9.30;99.90
37938;DHT22;23763;48.130;11.602;2023-02-19T17:04:44;9.20;99.90
37938;DHT22;23763;48.130;11.602;2023-02-19T17:07:13;9.20;99.90
37938;DHT22;23763;48.130;11.602;2023-02-19T17:09:39;9.10;99.90
37938;DHT22;23763;48.130;11.602;2023-02-19T17:12:10;9.10;99.90
37938;DHT22;23763;48.130;11.602;2023-02-19T17:14:36;9.20;99.90
37938;DHT22;23763;48.130;11.602;2023-02-19T17:17:03;9.20;99.90
37938;DHT22;23763;48.130;11.602;2023-02-19T17:19:30;9.30;99.90
37938;DHT22;23763;48.130;11.602;2023-02-19T17:21:56;9.20;99.90
37938;DHT22;23763;48.130;11.602;2023-02-19T17:24:23;9.20;99.90
37938;DHT22;23763;48.130;11.602;2023-02-19T17:26:49;9.30;99.90
37938;DHT22;23763;48.130;11.602;2023-02-19T17:29:14;9.30;99.90
37938;DHT22;23763;48.130;11.602;2023-02-19T17:31:43;9.40;99.90
37938;DHT22;23763;48.130;11.602;2023-02-19T17:34:08;9.50;99.90
37938;DHT22;23763;48.130;11.602;2023-02-19T17:36:34;9.50;99.90
37938;DHT22;23763;48.130;11.602;2023-02-19T17:39:03;9.50;99.90
37938;DHT22;23763;48.130;11.602;2023-02-19T17:41:29;9.50;99.90
37938;DHT22;23763;48.130;11.602;2023-02-19T17:43:54;9.50;99.90
37938;DHT22;23763;48.130;11.602;2023-02-19T17:46:23;9.50;99.90
37938;DHT22;23763;48.130;11.602;2023-02-19T17:48:49;9.50;99.90
37938;DHT22;23763;48.130;11.602;2023-02-19T17:51:18;9.50;99.90
37938;DHT22;23763;48.130;11.602;2023-02-19T17:53:43;9.50;99.90
37938;DHT22;23763;48.130;11.602;2023-02-19T17:56:15;9.50;99.90
37938;DHT22;23763;48.130;11.602;2023-02-19T17:58:41;9.50;99.90
37938;DHT22;23763;48.130;11.602;2023-02-19T18:01:07;9.50;99.90
37938;DHT22;23763;48.130;11.602;2023-02-19T18:03:32;9.50;99.90
37938;DHT22;23763;48.130;11.602;2023-02-19T18:05:58;9.40;99.90
37938;DHT22;23763;48.130;11.602;2023-02-19T18:08:23;9.50;99.90
37938;DHT22;23763;48.130;11.602;2023-02-19T18:10:49;9.50;99.90
37938;DHT22;23763;48.130;11.602;2023-02-19T18:13:15;9.50;99.90
37938;DHT22;23763;48.130;11.602;2023-02-19T18:15:40;9.40;99.90
37938;DHT22;23763;48.130;11.602;2023-02-19T18:18:09;9.50;99.90